sensor_id;sensor_type;location;lat;lon;timestamp;P1;durP1;ratioP1;P2;durP2;ratioP2
813;SDS011;389;48.710;9.392;2023-07-31T00:00:13;4.23;;;2.10;;
813;SDS011;389;48.710;9.392;2023-07-31T00:02:39;3.20;;;2.90;;
813;SDS011;389;48.710;9.392;2023-07-31T00:05:05;4.00;;;2.60;;
813;SDS011;389;48.710;9.392;2023-07-31T00:07:33;2.60;;;2.40;;
813;SDS011;389;48.710;9.392;2023-07-31T00:09:58;3.50;;;3.20;;
813;SDS011;389;48.710;9.392;2023-07-31T00:12:24;3.50;;;2.83;;
813;SDS011;389;48.710;9.392;2023-07-31T00:14:50;3.70;;;2.60;;
813;SDS011;389;48.710;9.392;2023-07-31T00:17:16;3.00;;;2.47;;
813;SDS011;389;48.710;9.392;2023-07-31T00:19:42;4.53;;;2.83;;
813;SDS011;389;48.710;9.392;2023-07-31T00:22:07;4.17;;;2.87;;
813;SDS011;389;48.710;9.392;2023-07-31T00:24:33;4.97;;;2.57;;
813;SDS011;389;48.710;9.392;2023-07-31T00:26:59;4.40;;;3.00;;
813;SDS011;389;48.710;9.392;2023-07-31T00:29:24;4.77;;;2.40;;
813;SDS011;389;48.710;9.392;2023-07-31T00:31:50;3.43;;;2.57;;
813;SDS011;389;48.710;9.392;2023-07-31T00:34:15;3.13;;;2.80;;
813;SDS011;389;48.710;9.392;2023-07-31T00:36:41;2.97;;;2.67;;
813;SDS011;389;48.710;9.392;2023-07-31T00:39:06;4.30;;;3.10;;
813;SDS011;389;48.710;9.392;2023-07-31T00:41:32;4.73;;;3.50;;
813;SDS011;389;48.710;9.392;2023-07-31T00:43:57;3.80;;;3.00;;
813;SDS011;389;48.710;9.392;2023-07-31T00:46:23;2.83;;;2.40;;
813;SDS011;389;48.710;9.392;2023-07-31T00:48:48;3.20;;;2.70;;
813;SDS011;389;48.710;9.392;2023-07-31T00:51:14;2.73;;;2.20;;
813;SDS011;389;48.710;9.392;2023-07-31T00:53:40;3.83;;;3.43;;
813;SDS011;389;48.710;9.392;2023-07-31T00:56:07;3.60;;;3.23;;
813;SDS011;389;48.710;9.392;2023-07-31T00:58:33;4.20;;;2.87;;
813;SDS011;389;48.710;9.392;2023-07-31T01:00:59;5.90;;;2.90;;
813;SDS011;389;48.710;9.392;2023-07-31T01:03:24;3.17;;;2.70;;
813;SDS011;389;48.710;9.392;2023-07-31T01:08:18;5.37;;;3.00;;
813;SDS011;389;48.710;9.392;2023-07-31T01:11:02;4.60;;;2.67;;
813;SDS011;389;48.710;9.392;2023-07-31T01:13:57;3.40;;;2.67;;
813;SDS011;389;48.710;9.392;2023-07-31T01:16:23;5.13;;;3.20;;
813;SDS011;389;48.710;9.392;2023-07-31T01:18:49;4.50;;;2.97;;
813;SDS011;389;48.710;9.392;2023-07-31T01:24:08;3.70;;;2.73;;
813;SDS011;389;48.710;9.392;2023-07-31T01:26:55;8.70;;;3.10;;
813;SDS011;389;48.710;9.392;2023-07-31T01:29:29;4.60;;;2.83;;
813;SDS011;389;48.710;9.392;2023-07-31T01:32:03;4.40;;;3.27;;
813;SDS011;389;48.710;9.392;2023-07-31T01:34:31;4.27;;;3.40;;
813;SDS011;389;48.710;9.392;2023-07-31T01:36:58;7.10;;;3.23;;
813;SDS011;389;48.710;9.392;2023-07-31T01:39:24;3.37;;;2.90;;
813;SDS011;389;48.710;9.392;2023-07-31T01:41:49;3.97;;;3.10;;
813;SDS011;389;48.710;9.392;2023-07-31T01:44:15;7.20;;;3.37;;
813;SDS011;389;48.710;9.392;2023-07-31T01:46:40;4.90;;;2.80;;
813;SDS011;389;48.710;9.392;2023-07-31T01:49:06;5.27;;;3.63;;
813;SDS011;389;48.710;9.392;2023-07-31T01:51:32;4.03;;;3.10;;
813;SDS011;389;48.710;9.392;2023-07-31T01:54:00;3.93;;;3.13;;
813;SDS011;389;48.710;9.392;2023-07-31T01:56:45;4.73;;;3.00;;
813;SDS011;389;48.710;9.392;2023-07-31T01:59:11;5.10;;;3.60;;
813;SDS011;389;48.710;9.392;2023-07-31T02:01:36;5.30;;;3.03;;
813;SDS011;389;48.710;9.392;2023-07-31T02:04:02;7.60;;;3.37;;
813;SDS011;389;48.710;9.392;2023-07-31T02:06:29;4.10;;;3.43;;
813;SDS011;389;48.710;9.392;2023-07-31T02:08:55;5.30;;;3.10;;
813;SDS011;389;48.710;9.392;2023-07-31T02:11:21;4.10;;;2.87;;
813;SDS011;389;48.710;9.392;2023-07-31T02:13:46;5.27;;;3.57;;
813;SDS011;389;48.710;9.392;2023-07-31T02:16:12;3.00;;;2.70;;
813;SDS011;389;48.710;9.392;2023-07-31T02:18:37;3.83;;;2.83;;
813;SDS011;389;48.710;9.392;2023-07-31T02:21:03;2.87;;;2.67;;
813;SDS011;389;48.710;9.392;2023-07-31T02:23:28;5.20;;;3.40;;
813;SDS011;389;48.710;9.392;2023-07-31T02:25:54;5.20;;;3.37;;
813;SDS011;389;48.710;9.392;2023-07-31T02:28:19;3.60;;;3.30;;
813;SDS011;389;48.710;9.392;2023-07-31T02:30:45;3.60;;;3.13;;
813;SDS011;389;48.710;9.392;2023-07-31T02:33:15;4.90;;;2.90;;
813;SDS011;389;48.710;9.392;2023-07-31T02:35:41;3.53;;;3.23;;
813;SDS011;389;48.710;9.392;2023-07-31T02:38:06;3.20;;;2.90;;
813;SDS011;389;48.710;9.392;2023-07-31T02:40:32;3.07;;;2.77;;
813;SDS011;389;48.710;9.392;2023-07-31T02:42:58;4.73;;;3.20;;
813;SDS011;389;48.710;9.392;2023-07-31T02:45:23;6.23;;;2.90;;
813;SDS011;389;48.710;9.392;2023-07-31T02:47:49;5.57;;;3.23;;
813;SDS011;389;48.710;9.392;2023-07-31T02:50:14;3.37;;;3.00;;
813;SDS011;389;48.710;9.392;2023-07-31T02:52:40;4.13;;;3.03;;
813;SDS011;389;48.710;9.392;2023-07-31T02:55:05;5.50;;;3.20;;
813;SDS011;389;48.710;9.392;2023-07-31T02:57:31;4.50;;;3.30;;
813;SDS011;389;48.710;9.392;2023-07-31T02:59:57;4.60;;;3.37;;
813;SDS011;389;48.710;9.392;2023-07-31T03:02:23;8.37;;;2.90;;
813;SDS011;389;48.710;9.392;2023-07-31T03:04:48;3.83;;;2.60;;
813;SDS011;389;48.710;9.392;2023-07-31T03:07:14;5.80;;;3.63;;
813;SDS011;389;48.710;9.392;2023-07-31T03:09:39;4.40;;;3.40;;
813;SDS011;389;48.710;9.392;2023-07-31T03:12:05;5.60;;;3.70;;
813;SDS011;389;48.710;9.392;2023-07-31T03:14:31;5.63;;;3.50;;
813;SDS011;389;48.710;9.392;2023-07-31T03:16:56;4.40;;;3.20;;
813;SDS011;389;48.710;9.392;2023-07-31T03:19:22;5.30;;;3.20;;
813;SDS011;389;48.710;9.392;2023-07-31T03:21:47;3.87;;;3.27;;
813;SDS011;389;48.710;9.392;2023-07-31T03:24:13;5.57;;;3.67;;
813;SDS011;389;48.710;9.392;2023-07-31T03:26:38;3.73;;;2.93;;
813;SDS011;389;48.710;9.392;2023-07-31T03:29:06;4.87;;;3.23;;
813;SDS011;389;48.710;9.392;2023-07-31T03:31:32;5.33;;;3.80;;
813;SDS011;389;48.710;9.392;2023-07-31T03:33:58;6.30;;;3.30;;
813;SDS011;389;48.710;9.392;2023-07-31T03:36:23;7.00;;;3.57;;
813;SDS011;389;48.710;9.392;2023-07-31T03:38:49;5.83;;;3.53;;
813;SDS011;389;48.710;9.392;2023-07-31T03:41:16;4.37;;;3.10;;
813;SDS011;389;48.710;9.392;2023-07-31T03:43:41;3.63;;;3.10;;
813;SDS011;389;48.710;9.392;2023-07-31T03:46:07;5.00;;;3.10;;
813;SDS011;389;48.710;9.392;2023-07-31T03:48:32;3.83;;;3.43;;
813;SDS011;389;48.710;9.392;2023-07-31T03:50:58;3.93;;;3.30;;
813;SDS011;389;48.710;9.392;2023-07-31T03:53:23;4.77;;;3.10;;
813;SDS011;389;48.710;9.392;2023-07-31T03:55:49;5.60;;;4.50;;
813;SDS011;389;48.710;9.392;2023-07-31T03:58:14;4.30;;;3.47;;
813;SDS011;389;48.710;9.392;2023-07-31T04:00:40;4.17;;;3.57;;
813;SDS011;389;48.710;9.392;2023-07-31T04:03:06;6.03;;;3.30;;
813;SDS011;389;48.710;9.392;2023-07-31T04:05:31;5.70;;;3.67;;
813;SDS011;389;48.710;9.392;2023-07-31T04:07:58;5.43;;;3.53;;
813;SDS011;389;48.710;9.392;2023-07-31T04:10:23;4.60;;;3.53;;
813;SDS011;389;48.710;9.392;2023-07-31T04:12:49;5.60;;;3.30;;
813;SDS011;389;48.710;9.392;2023-07-31T04:15:15;5.47;;;3.27;;
813;SDS011;389;48.710;9.392;2023-07-31T04:17:40;4.43;;;3.17;;
813;SDS011;389;48.710;9.392;2023-07-31T04:20:06;5.33;;;4.63;;
813;SDS011;389;48.710;9.392;2023-07-31T04:22:32;4.10;;;3.40;;
813;SDS011;389;48.710;9.392;2023-07-31T04:24:57;4.20;;;3.20;;
813;SDS011;389;48.710;9.392;2023-07-31T04:27:23;5.50;;;3.40;;
813;SDS011;389;48.710;9.392;2023-07-31T04:29:49;7.67;;;3.13;;
813;SDS011;389;48.710;9.392;2023-07-31T04:32:14;4.83;;;2.97;;
813;SDS011;389;48.710;9.392;2023-07-31T04:34:43;12.53;;;3.40;;
813;SDS011;389;48.710;9.392;2023-07-31T04:37:08;3.50;;;3.20;;
813;SDS011;389;48.710;9.392;2023-07-31T04:39:34;4.00;;;3.20;;
813;SDS011;389;48.710;9.392;2023-07-31T04:42:00;5.73;;;3.20;;
813;SDS011;389;48.710;9.392;2023-07-31T04:44:25;4.27;;;3.33;;
813;SDS011;389;48.710;9.392;2023-07-31T04:46:51;3.80;;;3.03;;
813;SDS011;389;48.710;9.392;2023-07-31T04:49:16;4.20;;;3.80;;
813;SDS011;389;48.710;9.392;2023-07-31T04:51:42;5.30;;;3.50;;
813;SDS011;389;48.710;9.392;2023-07-31T04:54:07;7.00;;;3.50;;
813;SDS011;389;48.710;9.392;2023-07-31T04:56:33;4.83;;;3.13;;
813;SDS011;389;48.710;9.392;2023-07-31T04:58:58;4.57;;;3.60;;
813;SDS011;389;48.710;9.392;2023-07-31T05:01:24;3.73;;;2.87;;
813;SDS011;389;48.710;9.392;2023-07-31T05:03:50;4.30;;;3.20;;
813;SDS011;389;48.710;9.392;2023-07-31T05:06:16;4.63;;;3.40;;
813;SDS011;389;48.710;9.392;2023-07-31T05:08:41;6.47;;;2.90;;
813;SDS011;389;48.710;9.392;2023-07-31T05:11:07;8.27;;;3.70;;
813;SDS011;389;48.710;9.392;2023-07-31T05:13:32;4.53;;;3.10;;
813;SDS011;389;48.710;9.392;2023-07-31T05:15:58;4.53;;;3.27;;
813;SDS011;389;48.710;9.392;2023-07-31T05:18:23;5.10;;;3.40;;
813;SDS011;389;48.710;9.392;2023-07-31T05:20:49;7.10;;;3.30;;
813;SDS011;389;48.710;9.392;2023-07-31T05:23:15;5.53;;;3.40;;
813;SDS011;389;48.710;9.392;2023-07-31T05:25:40;3.40;;;2.73;;
813;SDS011;389;48.710;9.392;2023-07-31T05:28:06;4.90;;;3.20;;
813;SDS011;389;48.710;9.392;2023-07-31T05:30:31;4.00;;;3.10;;
813;SDS011;389;48.710;9.392;2023-07-31T05:32:57;3.47;;;2.73;;
813;SDS011;389;48.710;9.392;2023-07-31T05:35:23;3.47;;;3.10;;
813;SDS011;389;48.710;9.392;2023-07-31T05:37:48;2.73;;;2.50;;
813;SDS011;389;48.710;9.392;2023-07-31T05:40:14;3.00;;;2.50;;
813;SDS011;389;48.710;9.392;2023-07-31T05:42:40;3.40;;;2.73;;
813;SDS011;389;48.710;9.392;2023-07-31T05:45:06;3.60;;;2.50;;
813;SDS011;389;48.710;9.392;2023-07-31T05:47:32;2.87;;;2.40;;
813;SDS011;389;48.710;9.392;2023-07-31T05:49:58;2.50;;;2.30;;
813;SDS011;389;48.710;9.392;2023-07-31T05:52:23;2.80;;;2.47;;
813;SDS011;389;48.710;9.392;2023-07-31T05:54:49;4.20;;;2.80;;
813;SDS011;389;48.710;9.392;2023-07-31T05:57:15;4.47;;;3.07;;
813;SDS011;389;48.710;9.392;2023-07-31T05:59:41;3.40;;;2.27;;
813;SDS011;389;48.710;9.392;2023-07-31T06:02:06;4.97;;;2.77;;
813;SDS011;389;48.710;9.392;2023-07-31T06:04:32;4.43;;;2.83;;
813;SDS011;389;48.710;9.392;2023-07-31T06:06:57;2.83;;;2.40;;
813;SDS011;389;48.710;9.392;2023-07-31T06:09:23;3.67;;;2.50;;
813;SDS011;389;48.710;9.392;2023-07-31T06:11:49;4.17;;;2.37;;
813;SDS011;389;48.710;9.392;2023-07-31T06:14:14;3.43;;;2.70;;
813;SDS011;389;48.710;9.392;2023-07-31T06:16:40;5.77;;;2.73;;
813;SDS011;389;48.710;9.392;2023-07-31T06:19:06;3.13;;;2.60;;
813;SDS011;389;48.710;9.392;2023-07-31T06:21:32;3.43;;;2.37;;
813;SDS011;389;48.710;9.392;2023-07-31T06:23:58;4.33;;;2.40;;
813;SDS011;389;48.710;9.392;2023-07-31T06:26:23;3.00;;;2.40;;
813;SDS011;389;48.710;9.392;2023-07-31T06:28:49;3.03;;;2.57;;
813;SDS011;389;48.710;9.392;2023-07-31T06:31:14;2.93;;;2.53;;
813;SDS011;389;48.710;9.392;2023-07-31T06:33:40;2.57;;;2.37;;
813;SDS011;389;48.710;9.392;2023-07-31T06:36:05;2.67;;;2.47;;
813;SDS011;389;48.710;9.392;2023-07-31T06:38:31;3.57;;;2.40;;
813;SDS011;389;48.710;9.392;2023-07-31T06:40:57;3.00;;;2.70;;
813;SDS011;389;48.710;9.392;2023-07-31T06:43:22;4.07;;;2.70;;
813;SDS011;389;48.710;9.392;2023-07-31T06:45:48;3.63;;;2.60;;
813;SDS011;389;48.710;9.392;2023-07-31T06:48:16;3.87;;;2.03;;
813;SDS011;389;48.710;9.392;2023-07-31T06:50:41;2.70;;;2.10;;
813;SDS011;389;48.710;9.392;2023-07-31T06:53:07;3.23;;;2.40;;
813;SDS011;389;48.710;9.392;2023-07-31T06:55:32;4.67;;;2.30;;
813;SDS011;389;48.710;9.392;2023-07-31T06:57:58;2.67;;;2.47;;
813;SDS011;389;48.710;9.392;2023-07-31T07:00:24;2.43;;;2.23;;
813;SDS011;389;48.710;9.392;2023-07-31T07:02:49;2.63;;;2.30;;
813;SDS011;389;48.710;9.392;2023-07-31T07:05:15;2.73;;;2.13;;
813;SDS011;389;48.710;9.392;2023-07-31T07:07:42;2.90;;;2.07;;
813;SDS011;389;48.710;9.392;2023-07-31T07:10:08;2.80;;;2.23;;
813;SDS011;389;48.710;9.392;2023-07-31T07:12:34;2.97;;;1.87;;
813;SDS011;389;48.710;9.392;2023-07-31T07:15:00;2.60;;;2.10;;
813;SDS011;389;48.710;9.392;2023-07-31T07:17:27;2.80;;;2.50;;
813;SDS011;389;48.710;9.392;2023-07-31T07:19:53;2.40;;;2.17;;
813;SDS011;389;48.710;9.392;2023-07-31T07:22:20;3.67;;;2.10;;
813;SDS011;389;48.710;9.392;2023-07-31T07:24:45;2.80;;;2.40;;
813;SDS011;389;48.710;9.392;2023-07-31T07:27:11;2.23;;;2.00;;
813;SDS011;389;48.710;9.392;2023-07-31T07:29:37;2.40;;;2.20;;
813;SDS011;389;48.710;9.392;2023-07-31T07:32:03;2.10;;;1.90;;
813;SDS011;389;48.710;9.392;2023-07-31T07:34:30;3.20;;;1.70;;
813;SDS011;389;48.710;9.392;2023-07-31T07:36:55;3.27;;;1.80;;
813;SDS011;389;48.710;9.392;2023-07-31T07:39:21;2.87;;;2.13;;
813;SDS011;389;48.710;9.392;2023-07-31T07:41:46;1.90;;;1.80;;
813;SDS011;389;48.710;9.392;2023-07-31T07:44:12;4.37;;;1.80;;
813;SDS011;389;48.710;9.392;2023-07-31T07:46:39;3.10;;;1.63;;
813;SDS011;389;48.710;9.392;2023-07-31T07:49:05;2.23;;;2.03;;
813;SDS011;389;48.710;9.392;2023-07-31T07:51:30;3.07;;;1.90;;
813;SDS011;389;48.710;9.392;2023-07-31T07:53:59;2.03;;;1.93;;
813;SDS011;389;48.710;9.392;2023-07-31T07:56:25;5.73;;;2.23;;
813;SDS011;389;48.710;9.392;2023-07-31T07:58:51;4.27;;;2.27;;
813;SDS011;389;48.710;9.392;2023-07-31T08:01:17;3.77;;;2.07;;
813;SDS011;389;48.710;9.392;2023-07-31T08:03:43;1.93;;;1.63;;
813;SDS011;389;48.710;9.392;2023-07-31T08:06:09;3.30;;;1.90;;
813;SDS011;389;48.710;9.392;2023-07-31T08:08:35;3.83;;;1.80;;
813;SDS011;389;48.710;9.392;2023-07-31T08:11:01;2.23;;;1.70;;
813;SDS011;389;48.710;9.392;2023-07-31T08:13:30;1.97;;;1.70;;
813;SDS011;389;48.710;9.392;2023-07-31T08:15:55;3.90;;;2.10;;
813;SDS011;389;48.710;9.392;2023-07-31T08:18:21;3.40;;;2.40;;
813;SDS011;389;48.710;9.392;2023-07-31T08:20:47;2.07;;;1.80;;
813;SDS011;389;48.710;9.392;2023-07-31T08:23:12;3.47;;;2.03;;
813;SDS011;389;48.710;9.392;2023-07-31T08:25:38;2.27;;;2.00;;
813;SDS011;389;48.710;9.392;2023-07-31T08:28:04;2.30;;;2.10;;
813;SDS011;389;48.710;9.392;2023-07-31T08:30:30;3.70;;;2.07;;
813;SDS011;389;48.710;9.392;2023-07-31T08:32:56;4.57;;;2.50;;
813;SDS011;389;48.710;9.392;2023-07-31T08:35:22;3.00;;;2.10;;
813;SDS011;389;48.710;9.392;2023-07-31T08:37:49;2.67;;;1.77;;
813;SDS011;389;48.710;9.392;2023-07-31T08:40:14;3.83;;;2.10;;
813;SDS011;389;48.710;9.392;2023-07-31T08:42:46;2.70;;;1.73;;
813;SDS011;389;48.710;9.392;2023-07-31T08:45:15;3.90;;;1.80;;
813;SDS011;389;48.710;9.392;2023-07-31T08:47:46;2.30;;;1.97;;
813;SDS011;389;48.710;9.392;2023-07-31T08:50:13;3.83;;;2.27;;
813;SDS011;389;48.710;9.392;2023-07-31T08:52:42;2.97;;;1.90;;
813;SDS011;389;48.710;9.392;2023-07-31T08:55:08;4.60;;;2.00;;
813;SDS011;389;48.710;9.392;2023-07-31T08:57:34;2.77;;;1.83;;
813;SDS011;389;48.710;9.392;2023-07-31T09:00:05;4.53;;;1.87;;
813;SDS011;389;48.710;9.392;2023-07-31T09:03:07;2.63;;;2.23;;
813;SDS011;389;48.710;9.392;2023-07-31T09:05:29;2.10;;;1.63;;
813;SDS011;389;48.710;9.392;2023-07-31T09:07:56;3.27;;;2.20;;
813;SDS011;389;48.710;9.392;2023-07-31T09:10:22;2.27;;;1.97;;
813;SDS011;389;48.710;9.392;2023-07-31T09:12:49;5.80;;;2.30;;
813;SDS011;389;48.710;9.392;2023-07-31T09:15:16;4.80;;;2.50;;
813;SDS011;389;48.710;9.392;2023-07-31T09:17:42;2.67;;;1.93;;
813;SDS011;389;48.710;9.392;2023-07-31T09:22:46;6.80;;;1.93;;
813;SDS011;389;48.710;9.392;2023-07-31T09:25:22;3.27;;;2.27;;
813;SDS011;389;48.710;9.392;2023-07-31T09:28:00;2.53;;;2.20;;
813;SDS011;389;48.710;9.392;2023-07-31T09:30:27;2.00;;;1.80;;
813;SDS011;389;48.710;9.392;2023-07-31T09:33:05;3.20;;;2.30;;
813;SDS011;389;48.710;9.392;2023-07-31T09:35:32;4.20;;;2.00;;
813;SDS011;389;48.710;9.392;2023-07-31T09:38:00;2.97;;;2.00;;
813;SDS011;389;48.710;9.392;2023-07-31T09:40:35;2.43;;;2.07;;
813;SDS011;389;48.710;9.392;2023-07-31T09:43:03;2.63;;;2.13;;
813;SDS011;389;48.710;9.392;2023-07-31T09:45:34;4.33;;;1.80;;
813;SDS011;389;48.710;9.392;2023-07-31T09:48:01;2.20;;;1.80;;
813;SDS011;389;48.710;9.392;2023-07-31T09:50:28;3.07;;;2.40;;
813;SDS011;389;48.710;9.392;2023-07-31T09:52:54;2.90;;;1.80;;
813;SDS011;389;48.710;9.392;2023-07-31T09:55:20;2.53;;;1.90;;
813;SDS011;389;48.710;9.392;2023-07-31T09:57:46;3.77;;;2.20;;
813;SDS011;389;48.710;9.392;2023-07-31T10:00:14;2.73;;;2.17;;
813;SDS011;389;48.710;9.392;2023-07-31T10:02:41;2.70;;;2.33;;
813;SDS011;389;48.710;9.392;2023-07-31T10:05:10;3.63;;;2.30;;
813;SDS011;389;48.710;9.392;2023-07-31T10:07:40;2.50;;;2.30;;
813;SDS011;389;48.710;9.392;2023-07-31T10:10:10;3.50;;;2.03;;
813;SDS011;389;48.710;9.392;2023-07-31T10:12:36;2.60;;;2.33;;
813;SDS011;389;48.710;9.392;2023-07-31T10:15:03;4.00;;;2.00;;
813;SDS011;389;48.710;9.392;2023-07-31T10:17:29;3.53;;;2.50;;
813;SDS011;389;48.710;9.392;2023-07-31T10:19:56;3.90;;;2.10;;
813;SDS011;389;48.710;9.392;2023-07-31T10:22:26;3.50;;;2.10;;
813;SDS011;389;48.710;9.392;2023-07-31T10:24:52;3.33;;;2.40;;
813;SDS011;389;48.710;9.392;2023-07-31T10:27:19;2.43;;;1.83;;
813;SDS011;389;48.710;9.392;2023-07-31T10:29:45;3.20;;;2.43;;
813;SDS011;389;48.710;9.392;2023-07-31T10:32:13;2.27;;;1.90;;
813;SDS011;389;48.710;9.392;2023-07-31T10:34:40;3.93;;;2.60;;
813;SDS011;389;48.710;9.392;2023-07-31T10:37:19;3.80;;;2.37;;
813;SDS011;389;48.710;9.392;2023-07-31T10:39:54;2.87;;;2.40;;
813;SDS011;389;48.710;9.392;2023-07-31T10:42:26;3.70;;;2.40;;
813;SDS011;389;48.710;9.392;2023-07-31T10:44:58;2.77;;;2.17;;
813;SDS011;389;48.710;9.392;2023-07-31T10:47:25;2.83;;;2.30;;
813;SDS011;389;48.710;9.392;2023-07-31T10:49:51;4.27;;;2.60;;
813;SDS011;389;48.710;9.392;2023-07-31T10:52:20;2.77;;;2.00;;
813;SDS011;389;48.710;9.392;2023-07-31T10:55:12;2.40;;;2.20;;
813;SDS011;389;48.710;9.392;2023-07-31T10:57:49;2.57;;;1.80;;
813;SDS011;389;48.710;9.392;2023-07-31T11:00:23;3.40;;;2.00;;
813;SDS011;389;48.710;9.392;2023-07-31T11:03:01;2.27;;;2.00;;
813;SDS011;389;48.710;9.392;2023-07-31T11:05:40;4.97;;;2.60;;
813;SDS011;389;48.710;9.392;2023-07-31T11:08:33;3.80;;;2.47;;
813;SDS011;389;48.710;9.392;2023-07-31T11:13:32;3.80;;;2.30;;
813;SDS011;389;48.710;9.392;2023-07-31T11:16:04;4.10;;;2.23;;
813;SDS011;389;48.710;9.392;2023-07-31T11:18:29;2.60;;;2.10;;
813;SDS011;389;48.710;9.392;2023-07-31T11:20:55;2.53;;;1.90;;
813;SDS011;389;48.710;9.392;2023-07-31T11:25:49;4.50;;;2.10;;
813;SDS011;389;48.710;9.392;2023-07-31T11:28:16;3.17;;;1.87;;
813;SDS011;389;48.710;9.392;2023-07-31T11:30:43;4.40;;;2.30;;
813;SDS011;389;48.710;9.392;2023-07-31T11:33:10;3.23;;;2.40;;
813;SDS011;389;48.710;9.392;2023-07-31T11:35:41;2.60;;;2.13;;
813;SDS011;389;48.710;9.392;2023-07-31T11:38:09;3.23;;;2.20;;
813;SDS011;389;48.710;9.392;2023-07-31T11:40:52;3.40;;;2.00;;
813;SDS011;389;48.710;9.392;2023-07-31T11:43:29;4.30;;;2.80;;
813;SDS011;389;48.710;9.392;2023-07-31T11:45:57;4.30;;;2.27;;
813;SDS011;389;48.710;9.392;2023-07-31T11:48:31;2.57;;;2.03;;
813;SDS011;389;48.710;9.392;2023-07-31T11:50:59;3.50;;;2.73;;
813;SDS011;389;48.710;9.392;2023-07-31T11:55:51;4.10;;;2.20;;
813;SDS011;389;48.710;9.392;2023-07-31T11:58:17;4.20;;;2.77;;
813;SDS011;389;48.710;9.392;2023-07-31T12:00:45;3.13;;;2.23;;
813;SDS011;389;48.710;9.392;2023-07-31T12:03:11;4.20;;;2.80;;
813;SDS011;389;48.710;9.392;2023-07-31T12:05:37;3.23;;;2.57;;
813;SDS011;389;48.710;9.392;2023-07-31T12:08:08;3.00;;;2.40;;
813;SDS011;389;48.710;9.392;2023-07-31T12:10:36;3.33;;;2.60;;
813;SDS011;389;48.710;9.392;2023-07-31T12:13:03;3.40;;;2.47;;
813;SDS011;389;48.710;9.392;2023-07-31T12:15:34;5.10;;;2.40;;
813;SDS011;389;48.710;9.392;2023-07-31T12:18:09;5.80;;;3.83;;
813;SDS011;389;48.710;9.392;2023-07-31T12:20:43;6.20;;;3.87;;
813;SDS011;389;48.710;9.392;2023-07-31T12:23:28;3.60;;;3.23;;
813;SDS011;389;48.710;9.392;2023-07-31T12:26:09;4.20;;;2.87;;
813;SDS011;389;48.710;9.392;2023-07-31T12:28:38;4.97;;;2.97;;
813;SDS011;389;48.710;9.392;2023-07-31T12:31:13;4.90;;;2.70;;
813;SDS011;389;48.710;9.392;2023-07-31T12:33:49;3.60;;;2.50;;
813;SDS011;389;48.710;9.392;2023-07-31T12:36:16;4.93;;;3.17;;
813;SDS011;389;48.710;9.392;2023-07-31T12:38:43;2.57;;;2.23;;
813;SDS011;389;48.710;9.392;2023-07-31T12:41:10;3.13;;;2.50;;
813;SDS011;389;48.710;9.392;2023-07-31T12:43:37;4.33;;;2.33;;
813;SDS011;389;48.710;9.392;2023-07-31T12:46:03;4.07;;;2.53;;
813;SDS011;389;48.710;9.392;2023-07-31T12:48:29;2.60;;;2.40;;
813;SDS011;389;48.710;9.392;2023-07-31T12:50:55;2.50;;;2.30;;
813;SDS011;389;48.710;9.392;2023-07-31T12:53:20;4.00;;;2.67;;
813;SDS011;389;48.710;9.392;2023-07-31T12:55:46;3.70;;;2.40;;
813;SDS011;389;48.710;9.392;2023-07-31T12:58:12;3.60;;;2.80;;
813;SDS011;389;48.710;9.392;2023-07-31T13:00:37;2.87;;;2.27;;
813;SDS011;389;48.710;9.392;2023-07-31T13:03:03;3.70;;;2.60;;
813;SDS011;389;48.710;9.392;2023-07-31T13:05:29;3.53;;;2.47;;
813;SDS011;389;48.710;9.392;2023-07-31T13:07:55;4.03;;;2.50;;
813;SDS011;389;48.710;9.392;2023-07-31T13:10:21;3.87;;;2.57;;
813;SDS011;389;48.710;9.392;2023-07-31T13:12:47;6.17;;;2.57;;
813;SDS011;389;48.710;9.392;2023-07-31T13:15:13;3.63;;;2.30;;
813;SDS011;389;48.710;9.392;2023-07-31T13:17:39;3.30;;;2.40;;
813;SDS011;389;48.710;9.392;2023-07-31T13:20:05;4.03;;;2.70;;
813;SDS011;389;48.710;9.392;2023-07-31T13:22:31;4.13;;;2.53;;
813;SDS011;389;48.710;9.392;2023-07-31T13:24:57;3.67;;;2.73;;
813;SDS011;389;48.710;9.392;2023-07-31T13:27:22;3.40;;;2.77;;
813;SDS011;389;48.710;9.392;2023-07-31T13:29:49;3.00;;;2.57;;
813;SDS011;389;48.710;9.392;2023-07-31T13:32:16;5.40;;;2.40;;
813;SDS011;389;48.710;9.392;2023-07-31T13:34:42;3.57;;;2.30;;
813;SDS011;389;48.710;9.392;2023-07-31T13:37:08;3.43;;;2.40;;
813;SDS011;389;48.710;9.392;2023-07-31T13:39:34;2.90;;;2.50;;
813;SDS011;389;48.710;9.392;2023-07-31T13:42:00;4.00;;;2.70;;
813;SDS011;389;48.710;9.392;2023-07-31T13:44:27;4.20;;;2.53;;
813;SDS011;389;48.710;9.392;2023-07-31T13:46:52;2.83;;;2.53;;
813;SDS011;389;48.710;9.392;2023-07-31T13:49:19;2.97;;;2.40;;
813;SDS011;389;48.710;9.392;2023-07-31T13:51:45;2.60;;;2.33;;
813;SDS011;389;48.710;9.392;2023-07-31T13:54:11;6.00;;;2.67;;
813;SDS011;389;48.710;9.392;2023-07-31T13:56:37;3.20;;;2.47;;
813;SDS011;389;48.710;9.392;2023-07-31T13:59:03;4.00;;;3.10;;
813;SDS011;389;48.710;9.392;2023-07-31T14:01:30;3.10;;;2.80;;
813;SDS011;389;48.710;9.392;2023-07-31T14:03:57;3.83;;;2.33;;
813;SDS011;389;48.710;9.392;2023-07-31T14:06:23;4.30;;;2.67;;
813;SDS011;389;48.710;9.392;2023-07-31T14:08:48;4.67;;;2.43;;
813;SDS011;389;48.710;9.392;2023-07-31T14:11:14;3.07;;;2.27;;
813;SDS011;389;48.710;9.392;2023-07-31T14:13:40;4.70;;;2.60;;
813;SDS011;389;48.710;9.392;2023-07-31T14:16:05;2.53;;;2.23;;
813;SDS011;389;48.710;9.392;2023-07-31T14:18:32;3.30;;;2.57;;
813;SDS011;389;48.710;9.392;2023-07-31T14:20:58;2.90;;;2.60;;
813;SDS011;389;48.710;9.392;2023-07-31T14:23:23;2.90;;;2.60;;
813;SDS011;389;48.710;9.392;2023-07-31T14:25:49;3.93;;;3.07;;
813;SDS011;389;48.710;9.392;2023-07-31T14:28:14;4.00;;;2.47;;
813;SDS011;389;48.710;9.392;2023-07-31T14:30:40;4.03;;;2.60;;
813;SDS011;389;48.710;9.392;2023-07-31T14:33:05;3.53;;;2.57;;
813;SDS011;389;48.710;9.392;2023-07-31T14:35:31;3.37;;;2.50;;
813;SDS011;389;48.710;9.392;2023-07-31T14:37:57;2.80;;;2.60;;
813;SDS011;389;48.710;9.392;2023-07-31T14:40:22;2.50;;;2.10;;
813;SDS011;389;48.710;9.392;2023-07-31T14:42:48;3.90;;;2.63;;
813;SDS011;389;48.710;9.392;2023-07-31T14:45:13;4.33;;;2.80;;
813;SDS011;389;48.710;9.392;2023-07-31T14:47:39;3.60;;;2.50;;
813;SDS011;389;48.710;9.392;2023-07-31T14:50:05;2.67;;;2.30;;
813;SDS011;389;48.710;9.392;2023-07-31T14:52:31;2.93;;;2.33;;
813;SDS011;389;48.710;9.392;2023-07-31T14:54:56;3.63;;;2.43;;
813;SDS011;389;48.710;9.392;2023-07-31T14:57:22;3.10;;;2.80;;
813;SDS011;389;48.710;9.392;2023-07-31T14:59:47;4.40;;;2.53;;
813;SDS011;389;48.710;9.392;2023-07-31T15:02:14;4.30;;;2.73;;
813;SDS011;389;48.710;9.392;2023-07-31T15:04:40;4.33;;;2.70;;
813;SDS011;389;48.710;9.392;2023-07-31T15:07:06;3.20;;;2.50;;
813;SDS011;389;48.710;9.392;2023-07-31T15:09:32;4.17;;;3.43;;
813;SDS011;389;48.710;9.392;2023-07-31T15:11:57;3.30;;;2.63;;
813;SDS011;389;48.710;9.392;2023-07-31T15:14:23;2.73;;;2.20;;
813;SDS011;389;48.710;9.392;2023-07-31T15:16:49;2.37;;;2.17;;
813;SDS011;389;48.710;9.392;2023-07-31T15:19:15;3.97;;;2.67;;
813;SDS011;389;48.710;9.392;2023-07-31T15:21:41;2.93;;;2.30;;
813;SDS011;389;48.710;9.392;2023-07-31T15:24:06;2.63;;;2.43;;
813;SDS011;389;48.710;9.392;2023-07-31T15:26:32;4.33;;;2.67;;
813;SDS011;389;48.710;9.392;2023-07-31T15:29:01;3.67;;;2.43;;
813;SDS011;389;48.710;9.392;2023-07-31T15:31:34;3.30;;;2.60;;
813;SDS011;389;48.710;9.392;2023-07-31T15:34:00;3.37;;;2.57;;
813;SDS011;389;48.710;9.392;2023-07-31T15:36:25;4.30;;;2.70;;
813;SDS011;389;48.710;9.392;2023-07-31T15:38:51;3.87;;;2.30;;
813;SDS011;389;48.710;9.392;2023-07-31T15:41:17;2.87;;;2.13;;
813;SDS011;389;48.710;9.392;2023-07-31T15:43:43;4.40;;;2.53;;
813;SDS011;389;48.710;9.392;2023-07-31T15:46:09;4.77;;;3.17;;
813;SDS011;389;48.710;9.392;2023-07-31T15:48:34;2.87;;;2.60;;
813;SDS011;389;48.710;9.392;2023-07-31T15:51:00;2.83;;;2.53;;
813;SDS011;389;48.710;9.392;2023-07-31T15:53:28;3.43;;;2.47;;
813;SDS011;389;48.710;9.392;2023-07-31T15:55:53;2.37;;;2.10;;
813;SDS011;389;48.710;9.392;2023-07-31T15:58:19;3.40;;;2.40;;